createdAt,value
2023-03-25T00:08:43.493Z,76.5
2023-03-25T00:23:52.794Z,76.5
2023-03-25T00:39:02.387Z,76.5
2023-03-25T00:54:11.171Z,76.5
2023-03-25T01:09:20.506Z,76.6
2023-03-25T01:24:31.905Z,76.5
2023-03-25T01:39:42.121Z,76.4
2023-03-25T01:54:52.624Z,76.3
2023-03-25T02:10:02.149Z,76.2
2023-03-25T02:25:11.773Z,76.6
2023-03-25T02:40:21.275Z,76.9
2023-03-25T02:55:33.839Z,76.9
2023-03-25T03:10:43.457Z,77
2023-03-25T03:25:54.204Z,76.9
2023-03-25T03:41:04.064Z,76.9
2023-03-25T03:56:13.500Z,76.9
2023-03-25T04:11:23.088Z,76.8
2023-03-25T04:26:33.613Z,76.9
2023-03-25T04:41:43.083Z,77.4
2023-03-25T04:56:53.007Z,77
2023-03-25T05:12:02.826Z,76.6
2023-03-25T05:27:12.687Z,77.1
2023-03-25T05:42:21.980Z,77.1
2023-03-25T05:57:33.246Z,77
2023-03-25T06:12:42.526Z,76.8
2023-03-25T06:27:52.981Z,76.6
2023-03-25T06:43:02.712Z,76.5
2023-03-25T06:58:12.471Z,76.3
2023-03-25T07:13:22.533Z,76.1
2023-03-25T07:28:33.485Z,75.8
2023-03-25T07:43:43.220Z,75.7
2023-03-25T07:58:57.195Z,75.5
2023-03-25T08:14:06.924Z,75.6
2023-03-25T08:29:17.088Z,75.8
2023-03-25T08:44:27.342Z,75.8
2023-03-25T08:59:36.835Z,75.6
2023-03-25T09:14:46.986Z,75.9
2023-03-25T09:29:55.803Z,76.2
2023-03-25T09:45:13.078Z,76
2023-03-25T10:00:23.363Z,75.7
2023-03-25T10:15:33.269Z,74.8
2023-03-25T10:30:43.083Z,74.2
2023-03-25T10:45:54.502Z,73.8
2023-03-25T11:01:04.748Z,73.9
2023-03-25T11:16:14.540Z,73.6
2023-03-25T11:31:25.085Z,73.1
2023-03-25T11:46:34.909Z,73.2
2023-03-25T12:01:44.444Z,73.5
2023-03-25T12:16:54.309Z,72.4
2023-03-25T12:32:04.286Z,71.6
2023-03-25T12:47:14.317Z,70.1
2023-03-25T13:02:31.650Z,69.5
2023-03-25T13:17:42.083Z,70.6
2023-03-25T13:32:51.506Z,72
2023-03-25T13:48:01.039Z,73.3
2023-03-25T14:03:10.650Z,74.5
2023-03-25T14:18:20.108Z,75.4
2023-03-25T14:33:29.599Z,75.3
2023-03-25T14:49:03.860Z,74.1
2023-03-25T15:04:13.934Z,75.4
2023-03-25T15:19:23.349Z,75.6
2023-03-25T15:34:34.632Z,76.2
2023-03-25T15:49:43.629Z,76.6
2023-03-25T16:04:53.024Z,76.8
2023-03-25T16:20:02.364Z,77
2023-03-25T16:35:11.737Z,77.2
2023-03-25T16:50:21.552Z,77.2
2023-03-25T17:05:30.885Z,77.4
2023-03-25T17:20:41.082Z,77.3
2023-03-25T17:35:51.526Z,77.1
2023-03-25T17:51:01.351Z,77
2023-03-25T18:06:10.292Z,78.7
2023-03-25T18:21:20.020Z,78.8
2023-03-25T18:36:29.634Z,78.5
2023-03-25T18:51:39.106Z,78.7
2023-03-25T19:06:49.528Z,78.6
2023-03-25T19:21:59.969Z,78.7
2023-03-25T19:37:09.518Z,78.8
2023-03-25T19:52:19.123Z,80
2023-03-25T20:07:28.902Z,78.9
2023-03-25T20:22:38.370Z,78.7
2023-03-25T20:37:47.781Z,78.5
2023-03-25T20:52:57.430Z,78.6
2023-03-25T21:08:06.916Z,78.6
2023-03-25T21:23:16.760Z,78.7
2023-03-25T21:38:30.054Z,78.6
2023-03-25T21:53:39.771Z,78.6
2023-03-25T22:08:49.280Z,78.7
2023-03-25T22:23:59.824Z,78.9
2023-03-25T22:39:09.143Z,79.2
2023-03-25T22:54:19.009Z,79.2
2023-03-25T23:09:28.522Z,80.3
2023-03-25T23:24:37.823Z,80.3
2023-03-25T23:39:47.429Z,79.2
2023-03-25T23:54:57.242Z,79.3
